Time;durP1;ratioP1;P1;durP2;ratioP2;P2;SDS_P1;SDS_P2;PMS_P1;PMS_P2;Temp;Humidity;BMP_temperature;BMP_pressure;BME280_temperature;BME280_humidity;BME280_pressure;Samples;Min_cycle;Max_cycle;Signal;HPM_P1;HPM_P2
2022/11/01 00:00:58;;;;;;;5.53;2.72;;;;;;;;;;5018015;28;20045;-84
2022/11/01 00:03:23;;;;;;;11.52;2.70;;;;;;;;;;5033041;28;20033;-84
2022/11/01 00:05:49;;;;;;;6.03;3.40;;;;;;;;;;5015586;28;20038;-84
2022/11/01 00:08:14;;;;;;;6.90;2.90;;;;;;;;;;5018214;28;20033;-84
2022/11/01 00:10:40;;;;;;;12.57;3.10;;;;;;;;;;5019031;28;20030;-84
2022/11/01 00:13:05;;;;;;;9.85;3.30;;;;;;;;;;5016791;28;20040;-84
2022/11/01 00:15:30;;;;;;;6.90;2.40;;;;;;;;;;5019005;28;20064;-84
2022/11/01 00:17:56;;;;;;;6.93;2.58;;;;;;;;;;5018609;28;20034;-84
2022/11/01 00:20:21;;;;;;;7.78;2.35;;;;;;;;;;5017511;28;20041;-84
2022/11/01 00:22:47;;;;;;;7.63;2.35;;;;;;;;;;5018470;28;20026;-84
2022/11/01 00:25:12;;;;;;;7.03;2.38;;;;;;;;;;5017037;28;20049;-84
2022/11/01 00:27:38;;;;;;;7.85;2.40;;;;;;;;;;5018679;28;20037;-84
2022/11/01 00:30:04;;;;;;;6.28;2.17;;;;;;;;;;5018799;28;20034;-84
2022/11/01 00:32:29;;;;;;;8.68;2.42;;;;;;;;;;5018428;28;20065;-84
2022/11/01 00:34:55;;;;;;;6.93;2.10;;;;;;;;;;5017743;28;20042;-84
2022/11/01 00:37:20;;;;;;;7.45;2.13;;;;;;;;;;5017409;28;20038;-84
2022/11/01 00:39:45;;;;;;;10.13;2.60;;;;;;;;;;5020538;28;20145;-84
2022/11/01 00:42:11;;;;;;;7.43;2.55;;;;;;;;;;5017635;28;20030;-84
2022/11/01 00:44:36;;;;;;;6.28;2.15;;;;;;;;;;5017331;28;20034;-84
2022/11/01 00:47:02;;;;;;;6.40;2.20;;;;;;;;;;5018085;28;20083;-84
2022/11/01 00:49:27;;;;;;;6.40;2.22;;;;;;;;;;5018457;28;20057;-84
2022/11/01 00:51:53;;;;;;;4.30;2.05;;;;;;;;;;5017967;28;20232;-84
2022/11/01 00:54:18;;;;;;;6.55;2.55;;;;;;;;;;5017306;28;20041;-84
2022/11/01 00:56:47;;;;;;;9.13;2.83;;;;;;;;;;5019125;28;20037;-84
2022/11/01 00:59:12;;;;;;;6.85;2.10;;;;;;;;;;5017965;28;20120;-84
2022/11/01 01:01:37;;;;;;;7.13;2.67;;;;;;;;;;5017729;28;20065;-84
2022/11/01 01:04:03;;;;;;;5.95;2.20;;;;;;;;;;5017213;28;20038;-84
2022/11/01 01:06:29;;;;;;;6.35;2.10;;;;;;;;;;5016409;28;20030;-84
2022/11/01 01:08:58;;;;;;;6.50;2.35;;;;;;;;;;5017597;28;20045;-84
2022/11/01 01:11:23;;;;;;;6.85;2.30;;;;;;;;;;5017895;28;20070;-84
2022/11/01 01:13:49;;;;;;;7.22;2.10;;;;;;;;;;5016102;28;20045;-84
2022/11/01 01:16:14;;;;;;;6.95;1.98;;;;;;;;;;5016567;28;20124;-83
2022/11/01 01:18:40;;;;;;;5.13;2.10;;;;;;;;;;5017086;28;20033;-84
2022/11/01 01:21:05;;;;;;;7.00;2.38;;;;;;;;;;5017809;28;20041;-84
2022/11/01 01:23:31;;;;;;;5.57;2.28;;;;;;;;;;5015995;28;20030;-84
2022/11/01 01:25:56;;;;;;;5.10;1.80;;;;;;;;;;5015778;28;20096;-84
2022/11/01 01:28:22;;;;;;;7.40;2.10;;;;;;;;;;5016852;28;20052;-83
2022/11/01 01:30:47;;;;;;;5.38;2.13;;;;;;;;;;5015199;28;20033;-84
2022/11/01 01:33:13;;;;;;;9.32;2.20;;;;;;;;;;5016715;28;20084;-83
2022/11/01 01:35:38;;;;;;;5.38;1.70;;;;;;;;;;5015912;28;20038;-84
2022/11/01 01:38:05;;;;;;;7.57;1.85;;;;;;;;;;5016346;28;20037;-84
2022/11/01 01:40:31;;;;;;;5.82;1.90;;;;;;;;;;4998934;28;20057;-84
2022/11/01 01:42:57;;;;;;;6.47;1.90;;;;;;;;;;5015798;28;20033;-84
2022/11/01 01:45:29;;;;;;;5.32;1.67;;;;;;;;;;5015969;28;20498;-84
2022/11/01 01:48:01;;;;;;;8.98;1.52;;;;;;;;;;5016108;28;20053;-84
2022/11/01 01:50:33;;;;;;;4.90;1.65;;;;;;;;;;5015274;28;20037;-84
2022/11/01 01:53:21;;;;;;;10.38;1.80;;;;;;;;;;5016750;28;20418;-84
2022/11/01 01:56:00;;;;;;;7.30;1.77;;;;;;;;;;5014034;28;20037;-84
2022/11/01 01:58:33;;;;;;;5.18;1.83;;;;;;;;;;5015286;28;20034;-84
2022/11/01 02:00:58;;;;;;;4.30;1.45;;;;;;;;;;5016102;28;20483;-84
2022/11/01 02:03:31;;;;;;;4.20;1.55;;;;;;;;;;5015706;28;20033;-84
2022/11/01 02:06:06;;;;;;;5.90;1.50;;;;;;;;;;5014427;28;20376;-84
2022/11/01 02:08:34;;;;;;;6.15;1.48;;;;;;;;;;5015461;28;20040;-84
2022/11/01 02:11:01;;;;;;;7.72;1.70;;;;;;;;;;5015049;28;20104;-83
2022/11/01 02:13:29;;;;;;;7.35;1.40;;;;;;;;;;5015631;28;20045;-84
2022/11/01 02:16:11;;;;;;;5.63;1.55;;;;;;;;;;5015261;28;20042;-84
2022/11/01 02:18:50;;;;;;;7.13;1.70;;;;;;;;;;5017844;28;20040;-84
2022/11/01 02:21:37;;;;;;;6.43;1.40;;;;;;;;;;5017713;28;20289;-84
2022/11/01 02:24:23;;;;;;;3.13;1.15;;;;;;;;;;5016892;28;20042;-84
2022/11/01 02:27:12;;;;;;;5.65;1.77;;;;;;;;;;5002189;28;20568;-84
2022/11/01 02:30:03;;;;;;;2.75;1.30;;;;;;;;;;4997267;28;20034;-84
2022/11/01 02:32:59;;;;;;;4.78;1.83;;;;;;;;;;4997029;28;20030;-84
2022/11/01 02:35:42;;;;;;;5.82;1.80;;;;;;;;;;4996625;28;20034;-84
2022/11/01 02:38:09;;;;;;;6.68;2.35;;;;;;;;;;4996332;28;20048;-84
2022/11/01 02:40:58;;;;;;;7.38;2.53;;;;;;;;;;4998165;28;20041;-84
2022/11/01 02:44:04;;;;;;;8.38;2.88;;;;;;;;;;4997197;28;20034;-84
2022/11/01 02:49:20;;;;;;;8.07;3.42;;;;;;;;;;4995233;28;20030;-85
2022/11/01 02:51:48;;;;;;;9.10;3.40;;;;;;;;;;4997218;28;20061;-84
2022/11/01 02:54:21;;;;;;;10.93;3.38;;;;;;;;;;4994983;28;20406;-84
2022/11/01 02:56:47;;;;;;;6.83;3.10;;;;;;;;;;4996596;28;20049;-84
2022/11/01 02:59:27;;;;;;;9.48;3.15;;;;;;;;;;4996699;28;20038;-84
2022/11/01 03:02:00;;;;;;;7.05;3.08;;;;;;;;;;4995400;28;20035;-84
2022/11/01 03:04:26;;;;;;;9.02;2.95;;;;;;;;;;4996246;28;20430;-84
2022/11/01 03:06:57;;;;;;;11.07;2.67;;;;;;;;;;4996583;28;20067;-84
2022/11/01 03:09:22;;;;;;;7.32;3.22;;;;;;;;;;4996974;28;20042;-84
2022/11/01 03:11:54;;;;;;;10.90;3.15;;;;;;;;;;4996622;28;20113;-84
2022/11/01 03:14:41;;;;;;;9.45;2.63;;;;;;;;;;4993830;28;20045;-84
2022/11/01 03:17:32;;;;;;;8.57;2.88;;;;;;;;;;4995676;28;20042;-84
2022/11/01 03:20:04;;;;;;;10.38;2.88;;;;;;;;;;4994295;28;20050;-84
2022/11/01 03:22:43;;;;;;;10.80;2.83;;;;;;;;;;4996581;28;20038;-84
2022/11/01 03:25:39;;;;;;;7.93;2.78;;;;;;;;;;4995834;28;20066;-84
2022/11/01 03:28:16;;;;;;;11.27;2.63;;;;;;;;;;4997116;28;20101;-84
2022/11/01 03:30:54;;;;;;;7.25;2.67;;;;;;;;;;4994899;28;20066;-84
2022/11/01 03:33:21;;;;;;;7.43;2.80;;;;;;;;;;4995860;28;20034;-84
2022/11/01 03:35:50;;;;;;;6.40;2.90;;;;;;;;;;4995536;28;20042;-84
2022/11/01 03:38:20;;;;;;;7.38;2.80;;;;;;;;;;4996170;28;20069;-84
2022/11/01 03:40:55;;;;;;;9.88;2.95;;;;;;;;;;4994971;28;20031;-84
2022/11/01 03:43:25;;;;;;;6.90;2.97;;;;;;;;;;4996421;28;20037;-84
2022/11/01 03:45:50;;;;;;;5.40;2.75;;;;;;;;;;4993889;28;20137;-84
2022/11/01 03:48:16;;;;;;;5.00;2.70;;;;;;;;;;4995968;28;20081;-84
2022/11/01 03:50:52;;;;;;;7.57;2.95;;;;;;;;;;4996103;28;20037;-85
2022/11/01 03:53:17;;;;;;;10.52;3.28;;;;;;;;;;4994527;28;20411;-84
2022/11/01 03:55:43;;;;;;;7.28;3.00;;;;;;;;;;4995337;28;20045;-84
2022/11/01 03:58:09;;;;;;;10.77;2.83;;;;;;;;;;4995989;28;20034;-85
2022/11/01 04:00:40;;;;;;;10.00;2.83;;;;;;;;;;4996940;28;20038;-84
2022/11/01 04:03:06;;;;;;;7.50;2.85;;;;;;;;;;4999386;28;20503;-84
2022/11/01 04:05:34;;;;;;;6.72;2.85;;;;;;;;;;4999083;28;20038;-84
2022/11/01 04:07:59;;;;;;;10.40;3.10;;;;;;;;;;4999159;28;20496;-84
2022/11/01 04:10:26;;;;;;;9.27;2.90;;;;;;;;;;4998424;28;20070;-85
2022/11/01 04:12:52;;;;;;;8.43;3.33;;;;;;;;;;4997031;28;20042;-84
2022/11/01 04:21:13;;;;;;;9.25;3.40;;;;;;;;;;4998759;28;20121;-85
2022/11/01 04:23:39;;;;;;;10.60;3.60;;;;;;;;;;4998897;28;20026;-85
2022/11/01 04:26:06;;;;;;;7.47;2.90;;;;;;;;;;4998519;28;20046;-84
2022/11/01 04:28:32;;;;;;;7.55;3.17;;;;;;;;;;4997958;28;20639;-84
2022/11/01 04:30:57;;;;;;;7.80;3.00;;;;;;;;;;4998593;28;20130;-84
2022/11/01 04:33:23;;;;;;;6.55;3.08;;;;;;;;;;5035643;22;20053;-83
2022/11/01 04:35:49;;;;;;;8.50;2.95;;;;;;;;;;5039541;28;20090;-83
2022/11/01 04:38:14;;;;;;;7.47;2.78;;;;;;;;;;5006289;28;20029;-83
2022/11/01 04:40:42;;;;;;;5.63;2.70;;;;;;;;;;5040252;28;20033;-82
2022/11/01 04:43:08;;;;;;;5.97;2.97;;;;;;;;;;5039576;28;20041;-84
2022/11/01 04:45:34;;;;;;;9.10;2.97;;;;;;;;;;5038721;28;20029;-84
2022/11/01 04:48:12;;;;;;;5.75;2.85;;;;;;;;;;5039862;28;20041;-83
2022/11/01 04:50:39;;;;;;;9.95;3.58;;;;;;;;;;5042069;28;20064;-83
2022/11/01 04:53:05;;;;;;;7.43;2.25;;;;;;;;;;5021992;28;20029;-83
2022/11/01 04:55:30;;;;;;;4.85;2.25;;;;;;;;;;5004864;28;20091;-82
2022/11/01 04:57:56;;;;;;;5.70;2.15;;;;;;;;;;5039420;28;20033;-82
2022/11/01 05:00:22;;;;;;;6.72;1.90;;;;;;;;;;5039745;28;20037;-83
2022/11/01 05:02:48;;;;;;;5.65;2.30;;;;;;;;;;5020963;28;20085;-82
2022/11/01 05:05:13;;;;;;;9.32;2.42;;;;;;;;;;5021722;28;20049;-83
2022/11/01 05:07:39;;;;;;;8.60;2.08;;;;;;;;;;5039997;28;20029;-84
2022/11/01 05:10:05;;;;;;;5.85;1.80;;;;;;;;;;5040103;28;20473;-83
2022/11/01 05:12:31;;;;;;;7.97;2.17;;;;;;;;;;5037721;28;20033;-84
2022/11/01 05:14:56;;;;;;;7.47;2.70;;;;;;;;;;5020639;28;20124;-82
2022/11/01 05:17:22;;;;;;;4.22;1.80;;;;;;;;;;5039971;28;20037;-83
2022/11/01 05:19:47;;;;;;;7.55;1.70;;;;;;;;;;5022746;28;20179;-81
2022/11/01 05:22:13;;;;;;;3.42;1.63;;;;;;;;;;5038724;28;20034;-81
2022/11/01 05:24:38;;;;;;;6.60;1.70;;;;;;;;;;5038118;28;20469;-81
2022/11/01 05:27:04;;;;;;;5.13;1.55;;;;;;;;;;5039956;28;20041;-83
2022/11/01 05:29:29;;;;;;;6.22;2.00;;;;;;;;;;5021799;28;20163;-81
2022/11/01 05:31:55;;;;;;;9.00;2.28;;;;;;;;;;5037801;28;20037;-83
2022/11/01 05:34:20;;;;;;;6.88;2.05;;;;;;;;;;5010405;28;20045;-82
2022/11/01 05:36:46;;;;;;;5.32;1.77;;;;;;;;;;5019954;28;20026;-83
2022/11/01 05:39:11;;;;;;;4.65;1.70;;;;;;;;;;5003053;28;20210;-82
2022/11/01 05:41:37;;;;;;;5.47;1.85;;;;;;;;;;5019818;28;20030;-82
2022/11/01 05:44:02;;;;;;;8.07;1.88;;;;;;;;;;5018793;28;20042;-83
2022/11/01 05:46:28;;;;;;;5.55;1.65;;;;;;;;;;5020934;28;20053;-82
2022/11/01 05:48:53;;;;;;;6.07;1.60;;;;;;;;;;5020108;28;20091;-81
2022/11/01 05:51:19;;;;;;;5.22;1.63;;;;;;;;;;5018939;28;20084;-81
2022/11/01 05:53:47;;;;;;;6.25;2.05;;;;;;;;;;5020154;28;20032;-82
2022/11/01 05:56:13;;;;;;;7.20;1.55;;;;;;;;;;5001989;28;20037;-82
2022/11/01 05:58:38;;;;;;;5.22;1.65;;;;;;;;;;5020545;28;20044;-83
2022/11/01 06:01:05;;;;;;;3.72;1.58;;;;;;;;;;5002836;28;20116;-82
2022/11/01 06:03:33;;;;;;;9.43;1.60;;;;;;;;;;5020011;28;20407;-82
2022/11/01 06:05:59;;;;;;;6.18;1.65;;;;;;;;;;5020371;28;20048;-82
2022/11/01 06:08:25;;;;;;;3.78;1.60;;;;;;;;;;5005421;28;20050;-84
2022/11/01 06:10:51;;;;;;;5.10;1.80;;;;;;;;;;5004412;28;20101;-83
2022/11/01 06:13:17;;;;;;;6.38;1.50;;;;;;;;;;5020687;28;20040;-84
2022/11/01 06:15:43;;;;;;;6.10;1.70;;;;;;;;;;5020872;28;20101;-84
2022/11/01 06:18:08;;;;;;;5.80;1.65;;;;;;;;;;5005037;28;20061;-83
2022/11/01 06:20:35;;;;;;;6.10;1.67;;;;;;;;;;5022265;28;20053;-84
2022/11/01 06:23:07;;;;;;;4.85;1.60;;;;;;;;;;5022386;28;20057;-83
2022/11/01 06:25:33;;;;;;;3.72;1.60;;;;;;;;;;5019925;28;20037;-84
2022/11/01 06:27:58;;;;;;;5.30;1.70;;;;;;;;;;5003223;28;20037;-83
2022/11/01 06:30:24;;;;;;;6.78;1.80;;;;;;;;;;5021704;28;20045;-84
2022/11/01 06:32:49;;;;;;;4.07;1.60;;;;;;;;;;5021051;28;20034;-84
2022/11/01 06:35:15;;;;;;;4.50;2.00;;;;;;;;;;5003928;28;20065;-84
2022/11/01 06:37:41;;;;;;;4.93;1.83;;;;;;;;;;5021685;28;20034;-83
2022/11/01 06:40:07;;;;;;;4.20;1.88;;;;;;;;;;5004203;28;20038;-84
2022/11/01 06:42:32;;;;;;;7.43;1.85;;;;;;;;;;5020950;28;20033;-84
2022/11/01 06:44:57;;;;;;;5.80;1.80;;;;;;;;;;5003710;28;20061;-83
2022/11/01 06:47:23;;;;;;;6.57;2.00;;;;;;;;;;5020085;28;20090;-84
2022/11/01 06:49:49;;;;;;;7.65;1.90;;;;;;;;;;5020660;28;20097;-83
2022/11/01 06:52:14;;;;;;;4.47;2.10;;;;;;;;;;5019109;28;20038;-83
2022/11/01 06:54:40;;;;;;;6.22;1.80;;;;;;;;;;5020472;28;20552;-84
2022/11/01 06:57:05;;;;;;;4.25;1.90;;;;;;;;;;5002200;28;20034;-84
2022/11/01 06:59:31;;;;;;;3.92;1.73;;;;;;;;;;5019778;28;20044;-83
2022/11/01 07:01:56;;;;;;;5.78;1.80;;;;;;;;;;5021250;28;20029;-84
2022/11/01 07:04:22;;;;;;;6.22;1.95;;;;;;;;;;5019570;28;20041;-83
2022/11/01 07:06:47;;;;;;;3.53;1.67;;;;;;;;;;5026542;28;20106;-84
2022/11/01 07:09:13;;;;;;;6.20;1.73;;;;;;;;;;5022452;28;20034;-82
2022/11/01 07:11:38;;;;;;;3.95;1.60;;;;;;;;;;4985238;28;20057;-83
2022/11/01 07:14:04;;;;;;;5.18;2.00;;;;;;;;;;5017781;28;20029;-83
2022/11/01 07:16:31;;;;;;;3.28;1.65;;;;;;;;;;5020265;28;20034;-82
2022/11/01 07:18:56;;;;;;;4.75;1.98;;;;;;;;;;5001900;28;20442;-83
2022/11/01 07:21:22;;;;;;;6.85;1.63;;;;;;;;;;5002492;28;20569;-82
2022/11/01 07:23:48;;;;;;;3.25;1.55;;;;;;;;;;5003082;28;20046;-83
2022/11/01 07:26:13;;;;;;;3.95;1.48;;;;;;;;;;5020989;28;20037;-82
2022/11/01 07:28:39;;;;;;;5.97;1.88;;;;;;;;;;5003930;28;20125;-83
2022/11/01 07:31:05;;;;;;;4.72;1.65;;;;;;;;;;5004445;28;20137;-82
2022/11/01 07:33:30;;;;;;;3.70;1.50;;;;;;;;;;5003744;28;20037;-83
2022/11/01 07:35:56;;;;;;;3.13;1.42;;;;;;;;;;5022180;28;20030;-83
2022/11/01 07:38:22;;;;;;;6.20;2.28;;;;;;;;;;4991374;28;20149;-82
2022/11/01 07:40:48;;;;;;;5.90;1.60;;;;;;;;;;5026110;28;20025;-83
2022/11/01 07:43:16;;;;;;;4.68;1.85;;;;;;;;;;5024866;28;20042;-83
2022/11/01 07:45:42;;;;;;;4.57;1.40;;;;;;;;;;5006287;28;20045;-84
2022/11/01 07:48:10;;;;;;;4.80;1.60;;;;;;;;;;5025065;28;20041;-84
2022/11/01 07:50:37;;;;;;;4.65;1.90;;;;;;;;;;5025250;28;20062;-83
2022/11/01 07:53:05;;;;;;;6.45;1.80;;;;;;;;;;4990496;28;20038;-83
2022/11/01 07:55:31;;;;;;;6.80;2.08;;;;;;;;;;4990797;28;20418;-83
2022/11/01 07:57:57;;;;;;;8.30;2.90;;;;;;;;;;5025287;28;20030;-83
2022/11/01 08:00:22;;;;;;;6.28;2.20;;;;;;;;;;5008081;28;20592;-83
2022/11/01 08:02:48;;;;;;;7.22;2.42;;;;;;;;;;5004315;28;20040;-85
2022/11/01 08:05:14;;;;;;;3.85;1.52;;;;;;;;;;4988998;28;20501;-83
2022/11/01 08:07:40;;;;;;;6.25;1.63;;;;;;;;;;5006956;28;20407;-82
2022/11/01 08:10:07;;;;;;;5.30;1.73;;;;;;;;;;5025760;28;20472;-84
2022/11/01 08:12:33;;;;;;;4.88;1.65;;;;;;;;;;5007015;28;20509;-82
2022/11/01 08:15:01;;;;;;;6.60;1.80;;;;;;;;;;5007097;28;20037;-83
2022/11/01 08:17:28;;;;;;;5.07;1.58;;;;;;;;;;5024115;28;20116;-83
2022/11/01 08:19:54;;;;;;;6.18;1.60;;;;;;;;;;5005816;28;20053;-83
2022/11/01 08:22:19;;;;;;;4.65;1.70;;;;;;;;;;5023594;28;20041;-84
2022/11/01 08:24:45;;;;;;;6.57;1.77;;;;;;;;;;5022819;28;20042;-83
2022/11/01 08:27:10;;;;;;;5.15;1.40;;;;;;;;;;5006456;28;20030;-84
2022/11/01 08:29:36;;;;;;;5.22;1.80;;;;;;;;;;4989480;28;20038;-84
2022/11/01 08:32:02;;;;;;;5.13;1.40;;;;;;;;;;5023747;28;20049;-83
2022/11/01 08:34:29;;;;;;;6.78;1.80;;;;;;;;;;4988835;28;20422;-84
2022/11/01 08:36:56;;;;;;;7.15;1.60;;;;;;;;;;5022281;28;20494;-83
2022/11/01 08:39:21;;;;;;;6.25;2.00;;;;;;;;;;5005539;28;20064;-84
2022/11/01 08:41:48;;;;;;;3.20;1.42;;;;;;;;;;5022745;28;20038;-83
2022/11/01 08:44:14;;;;;;;7.35;2.30;;;;;;;;;;5023481;28;20042;-82
2022/11/01 08:46:42;;;;;;;11.15;2.90;;;;;;;;;;4991670;28;20438;-84
2022/11/01 08:49:12;;;;;;;30.50;3.65;;;;;;;;;;5023428;28;20498;-83
2022/11/01 08:51:38;;;;;;;6.85;2.47;;;;;;;;;;4990322;28;20101;-82
2022/11/01 08:54:06;;;;;;;6.65;2.50;;;;;;;;;;5010038;28;20454;-84
2022/11/01 08:56:32;;;;;;;8.90;4.43;;;;;;;;;;5009114;28;20091;-84
2022/11/01 08:58:58;;;;;;;60.88;28.55;;;;;;;;;;4990108;28;20029;-82
2022/11/01 09:01:25;;;;;;;9.75;3.08;;;;;;;;;;5023678;28;20458;-83
2022/11/01 09:03:59;;;;;;;15.63;7.05;;;;;;;;;;5023920;28;20038;-85
2022/11/01 09:06:25;;;;;;;;;;;;;;;;;;5008832;28;20091;-83
2022/11/01 09:08:52;;;;;;;14.27;5.40;;;;;;;;;;4991853;28;19909;-83
2022/11/01 09:11:18;;;;;;;9.25;3.17;;;;;;;;;;5024569;28;20037;-84
2022/11/01 09:13:44;;;;;;;10.13;4.10;;;;;;;;;;5006268;28;20030;-82
2022/11/01 09:16:09;;;;;;;10.98;2.78;;;;;;;;;;4985445;28;20106;-83
2022/11/01 09:18:35;;;;;;;5.68;2.10;;;;;;;;;;4989839;28;20088;-83
2022/11/01 09:21:00;;;;;;;5.80;2.25;;;;;;;;;;5005258;28;20046;-83
2022/11/01 09:23:26;;;;;;;4.43;2.05;;;;;;;;;;5021100;28;20045;-82
2022/11/01 09:25:52;;;;;;;7.70;2.92;;;;;;;;;;5002052;28;20034;-82
2022/11/01 09:28:18;;;;;;;5.43;2.80;;;;;;;;;;5020501;28;20026;-83
2022/11/01 09:30:45;;;;;;;22.48;8.88;;;;;;;;;;5020112;28;20052;-85
2022/11/01 09:33:10;;;;;;;7.40;2.28;;;;;;;;;;5011646;28;20097;-84
2022/11/01 09:35:36;;;;;;;63.63;29.65;;;;;;;;;;5027026;28;20037;-82
2022/11/01 09:38:02;;;;;;;97.60;43.03;;;;;;;;;;5022557;28;20041;-82
2022/11/01 09:40:36;;;;;;;18.77;8.68;;;;;;;;;;5005918;28;20034;-84
2022/11/01 09:43:04;;;;;;;;;;;;;;;;;;5022684;28;20037;-83
2022/11/01 09:45:31;;;;;;;22.67;9.43;;;;;;;;;;5004421;28;19917;-82
2022/11/01 09:48:00;;;;;;;28.40;13.82;;;;;;;;;;4999670;28;20034;-83
2022/11/01 09:50:38;;;;;;;9.70;3.28;;;;;;;;;;5017624;28;20088;-84
2022/11/01 09:53:08;;;;;;;12.40;3.47;;;;;;;;;;5001093;28;20026;-84
2022/11/01 09:56:03;;;;;;;9.52;2.50;;;;;;;;;;5017821;28;20057;-85
2022/11/01 09:58:29;;;;;;;7.57;2.53;;;;;;;;;;5017963;28;20049;-85
2022/11/01 10:01:21;;;;;;;10.40;2.88;;;;;;;;;;5001533;28;20034;-85
2022/11/01 10:04:02;;;;;;;9.98;2.50;;;;;;;;;;4998584;28;20034;-84
2022/11/01 10:06:34;;;;;;;13.90;2.38;;;;;;;;;;5016492;28;20034;-83
2022/11/01 10:09:37;;;;;;;9.43;2.17;;;;;;;;;;4999191;28;20038;-83
2022/11/01 10:12:26;;;;;;;11.48;2.80;;;;;;;;;;5017090;28;20029;-83
2022/11/01 10:14:54;;;;;;;11.13;2.22;;;;;;;;;;4978250;28;20042;-84
2022/11/01 10:17:33;;;;;;;7.97;2.50;;;;;;;;;;4999133;28;20033;-85
2022/11/01 10:20:00;;;;;;;8.20;2.45;;;;;;;;;;5016135;28;20033;-84
2022/11/01 10:22:32;;;;;;;8.15;2.47;;;;;;;;;;5017080;28;20418;-84
2022/11/01 10:25:07;;;;;;;8.13;2.60;;;;;;;;;;4998786;28;20037;-83
2022/11/01 10:28:02;;;;;;;9.50;2.40;;;;;;;;;;4985094;28;20041;-85
2022/11/01 10:30:35;;;;;;;7.18;2.13;;;;;;;;;;5002848;28;20487;-83
2022/11/01 10:40:24;;;;;;;;;;;;;;;;;;;;;
2022/11/01 10:43:26;;;;;;;;;;;;;;;;;;;;;
2022/11/01 10:50:01;;;;;;;;;;;;;;;;;;;;;
2022/11/01 10:53:08;;;;;;;;;;;;;;;;;;;;;
2022/11/01 11:01:06;;;;;;;10.18;2.47;;;;;;;;;;5188170;22;20514;-87
2022/11/01 11:03:32;;;;;;;10.90;2.88;;;;;;;;;;5036989;28;20092;-86
2022/11/01 11:06:03;;;;;;;7.97;2.63;;;;;;;;;;5039151;28;20053;-88
2022/11/01 11:08:30;;;;;;;8.75;2.50;;;;;;;;;;5043246;28;20126;-85
2022/11/01 11:11:01;;;;;;;7.60;2.30;;;;;;;;;;5043009;28;20045;-87
2022/11/01 11:13:28;;;;;;;11.85;2.28;;;;;;;;;;5041022;28;20108;-84
2022/11/01 11:15:59;;;;;;;8.93;2.30;;;;;;;;;;5037168;28;20031;-84
2022/11/01 11:18:29;;;;;;;5.75;2.05;;;;;;;;;;5022616;28;20037;-85
2022/11/01 11:20:59;;;;;;;6.28;2.30;;;;;;;;;;5035642;28;20437;-85
2022/11/01 11:23:29;;;;;;;9.15;2.35;;;;;;;;;;5036321;28;20099;-85
2022/11/01 11:26:04;;;;;;;7.50;2.95;;;;;;;;;;5034791;28;20048;-83
2022/11/01 11:28:32;;;;;;;10.40;2.30;;;;;;;;;;5036989;28;20578;-82
2022/11/01 11:31:12;;;;;;;7.80;2.30;;;;;;;;;;5017961;28;20030;-85
2022/11/01 11:33:39;;;;;;;8.57;2.10;;;;;;;;;;5035535;28;20091;-84
2022/11/01 11:36:06;;;;;;;6.80;2.15;;;;;;;;;;5034534;28;20033;-84
2022/11/01 11:38:45;;;;;;;5.72;2.10;;;;;;;;;;5034620;28;20039;-82
2022/11/01 11:41:25;;;;;;;8.70;2.05;;;;;;;;;;5016980;28;20095;-83
2022/11/01 11:43:50;;;;;;;8.40;1.98;;;;;;;;;;5034378;28;20079;-84
2022/11/01 11:46:21;;;;;;;11.95;2.10;;;;;;;;;;5033513;28;20433;-84
2022/11/01 11:49:00;;;;;;;9.48;2.03;;;;;;;;;;5034486;28;20041;-87
2022/11/01 11:51:31;;;;;;;4.30;1.90;;;;;;;;;;5038272;28;20037;-85
2022/11/01 11:54:19;;;;;;;7.63;2.10;;;;;;;;;;5019808;28;20040;-86
2022/11/01 11:56:45;;;;;;;6.93;1.88;;;;;;;;;;5037633;28;20486;-85
2022/11/01 11:59:27;;;;;;;6.68;2.03;;;;;;;;;;5020315;28;20037;-85
2022/11/01 12:01:59;;;;;;;8.55;2.05;;;;;;;;;;5038056;28;20083;-86
2022/11/01 12:04:48;;;;;;;5.75;1.98;;;;;;;;;;5023403;28;20045;-85
2022/11/01 12:07:33;;;;;;;8.85;2.25;;;;;;;;;;5029945;28;20045;-86
2022/11/01 12:10:25;;;;;;;11.50;2.20;;;;;;;;;;5046859;28;20037;-86
2022/11/01 12:12:52;;;;;;;5.82;1.60;;;;;;;;;;5045997;28;20014;-89
2022/11/01 12:15:24;;;;;;;9.15;1.98;;;;;;;;;;5046331;28;20059;-88
2022/11/01 12:17:50;;;;;;;7.18;1.80;;;;;;;;;;5046649;28;20080;-88
2022/11/01 12:20:25;;;;;;;7.45;2.20;;;;;;;;;;5028119;28;20045;-88
2022/11/01 12:23:17;;;;;;;6.97;2.00;;;;;;;;;;5014297;28;20030;-87
2022/11/01 12:41:41;;;;;;;16.30;3.10;;;;;;;;;;6068451;23;20013;-85
2022/11/01 12:44:31;;;;;;;9.05;2.40;;;;;;;;;;4975657;28;20043;-86
2022/11/01 12:47:32;;;;;;;;;;;;;;;;;;;;;
2022/11/01 13:05:42;;;;;;;7.15;2.50;;;;;;;;;;5591551;22;20072;-87
2022/11/01 13:08:38;;;;;;;7.63;2.80;;;;;;;;;;5029208;28;20046;-84
2022/11/01 13:11:38;;;;;;;11.02;2.80;;;;;;;;;;5021658;28;20092;-84
2022/11/01 13:14:22;;;;;;;8.65;2.50;;;;;;;;;;5023931;28;20046;-87
2022/11/01 13:16:57;;;;;;;9.65;2.42;;;;;;;;;;5029456;28;20098;-85
2022/11/01 13:19:38;;;;;;;10.05;2.38;;;;;;;;;;5029663;28;20035;-87
2022/11/01 13:22:19;;;;;;;8.23;2.55;;;;;;;;;;5029593;28;20033;-85
2022/11/01 13:24:56;;;;;;;9.43;2.70;;;;;;;;;;5028582;28;20037;-85
2022/11/01 13:27:30;;;;;;;7.28;2.50;;;;;;;;;;5026713;28;20052;-86
2022/11/01 13:30:13;;;;;;;8.15;2.35;;;;;;;;;;5008479;28;20498;-86
2022/11/01 13:32:58;;;;;;;10.83;2.90;;;;;;;;;;5025037;28;20402;-86
2022/11/01 13:35:43;;;;;;;6.43;2.78;;;;;;;;;;5008613;28;20411;-85
2022/11/01 13:38:16;;;;;;;7.35;2.85;;;;;;;;;;5007256;28;20042;-85
2022/11/01 13:40:41;;;;;;;9.88;2.78;;;;;;;;;;5025498;28;20033;-85
2022/11/01 13:43:10;;;;;;;6.60;2.50;;;;;;;;;;4992617;28;20152;-85
2022/11/01 13:45:50;;;;;;;7.45;2.50;;;;;;;;;;5023829;28;20041;-87
2022/11/01 13:48:16;;;;;;;9.48;2.53;;;;;;;;;;5025086;28;20072;-86
2022/11/01 13:51:03;;;;;;;12.52;2.55;;;;;;;;;;5008292;28;20037;-86
2022/11/01 13:53:44;;;;;;;8.07;2.40;;;;;;;;;;5018521;28;20034;-87
2022/11/01 13:56:16;;;;;;;7.00;2.50;;;;;;;;;;5015671;28;20033;-86
2022/11/01 13:58:44;;;;;;;16.13;6.45;;;;;;;;;;5016487;28;20048;-85
2022/11/01 14:01:28;;;;;;;11.23;4.35;;;;;;;;;;4982911;28;20479;-88
2022/11/01 14:04:06;;;;;;;28.52;12.68;;;;;;;;;;4982296;28;20490;-86
2022/11/01 14:06:36;;;;;;;20.05;7.45;;;;;;;;;;4998934;28;20034;-86
2022/11/01 14:09:24;;;;;;;188.80;63.00;;;;;;;;;;5017321;28;20034;-88
2022/11/01 14:11:53;;;;;;;385.25;147.68;;;;;;;;;;5018665;28;20026;-88
2022/11/01 14:14:28;;;;;;;21.38;9.32;;;;;;;;;;4999232;28;20025;-87
2022/11/01 14:17:18;;;;;;;20.40;8.15;;;;;;;;;;5017768;28;20044;-87
2022/11/01 14:19:59;;;;;;;10.48;4.00;;;;;;;;;;5000321;28;20034;-87
2022/11/01 14:22:26;;;;;;;7.85;2.92;;;;;;;;;;5000899;28;20033;-88
2022/11/01 14:24:56;;;;;;;6.05;2.83;;;;;;;;;;4999424;28;20111;-89
2022/11/01 14:27:28;;;;;;;10.00;2.15;;;;;;;;;;5017158;28;20070;-86
2022/11/01 14:29:55;;;;;;;8.48;2.78;;;;;;;;;;5017620;28;20038;-86
2022/11/01 14:32:26;;;;;;;10.98;3.13;;;;;;;;;;4999274;28;20038;-87
2022/11/01 14:35:20;;;;;;;10.07;2.20;;;;;;;;;;5017007;28;20044;-87
2022/11/01 14:37:51;;;;;;;11.63;2.60;;;;;;;;;;5009398;28;20107;-86
2022/11/01 14:40:41;;;;;;;8.70;2.90;;;;;;;;;;5018246;28;20065;-88
2022/11/01 14:43:15;;;;;;;8.82;2.33;;;;;;;;;;5017516;28;20040;-87
2022/11/01 14:45:45;;;;;;;8.25;2.40;;;;;;;;;;4999101;28;20034;-85
2022/11/01 14:48:20;;;;;;;10.45;2.90;;;;;;;;;;5017017;28;20049;-86
2022/11/01 14:51:03;;;;;;;5.97;2.88;;;;;;;;;;5017335;28;20086;-86
2022/11/01 14:53:40;;;;;;;9.25;3.00;;;;;;;;;;5016907;28;20030;-86
2022/11/01 14:56:29;;;;;;;8.43;2.90;;;;;;;;;;4982301;28;20042;-86
2022/11/01 14:59:11;;;;;;;8.95;2.70;;;;;;;;;;4998743;28;20040;-87
2022/11/01 15:01:43;;;;;;;10.85;3.50;;;;;;;;;;5017471;28;20041;-86
2022/11/01 15:04:20;;;;;;;10.23;3.67;;;;;;;;;;5016800;28;20046;-86
2022/11/01 15:06:47;;;;;;;6.55;2.47;;;;;;;;;;5017193;28;20045;-86
2022/11/01 15:09:22;;;;;;;9.15;2.60;;;;;;;;;;5017277;28;20077;-86
2022/11/01 15:11:49;;;;;;;11.10;2.70;;;;;;;;;;4999790;28;20517;-85
2022/11/01 15:14:21;;;;;;;8.57;3.17;;;;;;;;;;5015243;28;20037;-85
2022/11/01 15:16:48;;;;;;;10.02;3.75;;;;;;;;;;5016941;28;20049;-85
2022/11/01 15:19:19;;;;;;;9.65;4.03;;;;;;;;;;4999585;28;20112;-85
2022/11/01 15:21:44;;;;;;;9.68;3.97;;;;;;;;;;4999312;28;20125;-85
2022/11/01 15:24:23;;;;;;;10.70;3.83;;;;;;;;;;5016073;28;20119;-85
2022/11/01 15:26:48;;;;;;;7.97;3.60;;;;;;;;;;5017002;28;20042;-85
2022/11/01 15:29:20;;;;;;;5.25;3.10;;;;;;;;;;4999078;28;20021;-85
2022/11/01 15:31:56;;;;;;;6.00;2.92;;;;;;;;;;4999265;28;20049;-85
2022/11/01 15:34:30;;;;;;;7.57;3.00;;;;;;;;;;5016329;28;20125;-86
2022/11/01 15:36:58;;;;;;;5.65;2.90;;;;;;;;;;4998986;28;20410;-87
2022/11/01 15:39:27;;;;;;;7.78;3.15;;;;;;;;;;4982850;28;20052;-87
2022/11/01 15:41:54;;;;;;;9.48;3.33;;;;;;;;;;5015492;28;20057;-87
2022/11/01 15:44:26;;;;;;;6.90;3.47;;;;;;;;;;5014210;28;20088;-87
2022/11/01 15:46:58;;;;;;;8.30;3.20;;;;;;;;;;5014607;28;20041;-86
2022/11/01 15:49:39;;;;;;;10.52;3.30;;;;;;;;;;5014233;28;20436;-86
2022/11/01 15:52:14;;;;;;;9.40;3.67;;;;;;;;;;5014348;28;20122;-86
2022/11/01 15:54:49;;;;;;;8.27;4.10;;;;;;;;;;5013439;28;20475;-85
2022/11/01 15:57:18;;;;;;;10.68;4.00;;;;;;;;;;5015776;28;20041;-85
2022/11/01 15:59:55;;;;;;;9.52;3.65;;;;;;;;;;5018358;28;20026;-86
2022/11/01 16:02:30;;;;;;;8.98;3.92;;;;;;;;;;5018148;28;20109;-86
2022/11/01 16:04:56;;;;;;;7.57;3.55;;;;;;;;;;5017653;28;20062;-85